Kezdőlap
METAR-TAF:

METAR-TAF

Repülőterek :

Csengtu, Kína

földrajzi szélesség: 30-40N, földrajzi hosszúság: 104-01E, magasság: 508 m

Jelenlegi meteorológiai megfigyelések

A jelentés 40 perccel ezelõtt készült, 03:00 UTC
Szélcsend
Hőmérséklet 33°C
Páratartalom 63%
Légköri nyomás 1009 hPa
Látótávolság 10 km, vagy több
felhőtlen 1500 m magasságban, és nincs gomolyfelhõ

METAR: ZUUU 150300Z 00000MPS CAVOK 33/25 Q1009 NOSIG

Idő: 11:40 (03:40 UTC)

Előrejelzés

A jelentés 7 órával és 34 perccel ezelõtt készült, 20:06 UTC
Az előrejelzés 15-én 00 óra UTC és 15-én 24 óra UTC között érvényes
Dél-délnyugati szél 6 kt
Látótávolság: 5000 m
Szórványos felhőzet 5000 lábon
Párásság
15-én 06 óra UTC és 15-én 12 óra UTC között ideiglenes
Kevés felhő 3000 lábon, Cumulonimbus.
Szórványos felhőzet 5000 lábon

TAF: ZUUU 142006Z 1500/1524 20003MPS 5000 BR SCT050 TX36/1507Z TN24/1522Z TEMPO 1506/1512 FEW030CB SCT050

Meteorológiai megfigyelések és előrejelzések több, mint 4000 repülőtéren (METAR és TAF jelentéseket).

A térképen piros és sárga pontok jelzik az elérhető meteorológiai állomásokat.

Mozgassa az egeret a pont fölött, hogy megjelenjen az állomás neve.

Azután kattintson az időjárási megfigyelések és előrejelzések megtekintéséhez.

A térkép megváltoztatása: kattintson a fekete keresztel jelölt zöld gombra ráközelítéshez, a vonallal jelölt zöld gombra távolításhoz, vagy a zöld nyilakra a szomszédos térképek eléréséhez.


METAR-TAF: